Time;durP1;ratioP1;P1;durP2;ratioP2;P2;SDS_P1;SDS_P2;PMS_P1;PMS_P2;Temp;Humidity;BMP_temperature;BMP_pressure;BME280_temperature;BME280_humidity;BME280_pressure;Samples;Min_cycle;Max_cycle;Signal;HPM_P1;HPM_P2
2022/08/17 00:01:28;;;;;;;5.00;3.08;;;;;;;27.22;39.12;100526.22;5106699;27;20469;-61
2022/08/17 00:03:54;;;;;;;4.27;2.80;;;;;;;27.22;39.06;100526.22;5102354;28;20410;-61
2022/08/17 00:06:28;;;;;;;6.25;3.00;;;;;;;27.20;39.28;100536.59;5085669;28;20504;-61
2022/08/17 00:08:59;;;;;;;6.13;2.90;;;;;;;27.20;39.11;100547.47;5087232;28;20379;-61
2022/08/17 00:11:35;;;;;;;5.30;2.90;;;;;;;27.14;39.18;100537.75;5086759;28;20497;-60
2022/08/17 00:14:10;;;;;;;4.07;2.85;;;;;;;27.11;39.27;100529.34;5087151;28;20454;-60
2022/08/17 00:16:41;;;;;;;5.07;2.90;;;;;;;27.11;39.45;100543.75;5086824;28;20394;-61
2022/08/17 00:19:10;;;;;;;3.85;2.60;;;;;;;27.10;39.30;100539.44;5081229;28;20386;-61
2022/08/17 00:23:35;;;;;;;3.20;2.78;;;;;;;27.07;39.62;100535.34;5059542;28;20408;-61
2022/08/17 00:26:01;;;;;;;4.90;3.10;;;;;;;27.03;39.47;100536.22;5047634;28;20455;-62
2022/08/17 00:30:41;;;;;;;3.88;2.72;;;;;;;26.99;39.76;100540.59;5065992;28;20929;-61
2022/08/17 00:33:14;;;;;;;3.80;2.85;;;;;;;26.97;39.71;100535.44;5067096;28;20473;-59
2022/08/17 00:35:41;;;;;;;4.88;2.85;;;;;;;26.95;39.70;100536.81;5066781;28;20384;-60
2022/08/17 00:38:08;;;;;;;4.05;2.80;;;;;;;26.92;39.69;100531.94;5046766;28;20548;-60
2022/08/17 00:40:40;;;;;;;6.63;3.00;;;;;;;26.92;40.11;100537.38;5046710;28;20435;-59
2022/08/17 00:43:13;;;;;;;4.83;2.67;;;;;;;26.91;39.78;100527.63;5046113;28;20932;-60
2022/08/17 00:45:39;;;;;;;4.75;2.85;;;;;;;26.83;40.13;100521.69;5032679;28;20411;-59
2022/08/17 00:48:05;;;;;;;4.25;2.70;;;;;;;26.80;39.78;100524.16;5031948;28;20431;-60
2022/08/17 00:50:31;;;;;;;3.73;2.90;;;;;;;26.77;40.00;100528.25;5063058;28;20838;-60
2022/08/17 00:52:57;;;;;;;4.50;2.60;;;;;;;26.75;40.29;100522.28;5059406;28;20424;-60
2022/08/17 00:55:25;;;;;;;6.47;2.80;;;;;;;26.78;39.79;100523.63;5046348;28;20424;-60
2022/08/17 00:57:55;;;;;;;3.97;3.00;;;;;;;26.80;39.84;100526.88;5057313;28;20410;-61
2022/08/17 01:00:25;;;;;;;4.65;2.60;;;;;;;26.80;39.98;100535.03;5066442;28;20463;-60
2022/08/17 01:02:56;;;;;;;4.30;2.97;;;;;;;26.74;39.83;100536.16;5066519;28;20407;-60
2022/08/17 01:05:26;;;;;;;4.30;2.60;;;;;;;26.73;40.05;100529.91;5045903;28;20912;-60
2022/08/17 01:07:52;;;;;;;3.67;2.90;;;;;;;26.76;39.91;100540.22;5046316;28;20382;-60
2022/08/17 01:10:25;;;;;;;3.72;2.80;;;;;;;26.72;40.22;100530.19;5046193;28;20405;-60
2022/08/17 01:12:50;;;;;;;5.32;3.05;;;;;;;26.73;40.34;100540.78;5045575;28;20393;-60
2022/08/17 01:15:16;;;;;;;6.63;3.00;;;;;;;26.76;40.13;100536.69;5046252;28;20386;-60
2022/08/17 01:19:53;;;;;;;4.85;3.00;;;;;;;26.72;40.13;100535.63;5095018;27;20459;-60
2022/08/17 01:22:22;;;;;;;4.80;2.90;;;;;;;26.62;40.49;100533.78;5087470;28;20394;-60
2022/08/17 01:24:55;;;;;;;6.30;3.00;;;;;;;26.64;40.14;100534.31;5086839;28;20394;-59
2022/08/17 01:28:13;;;;;;;3.60;2.80;;;;;;;26.64;40.35;100528.88;5084103;27;20459;-63
2022/08/17 01:30:41;;;;;;;4.45;2.90;;;;;;;26.62;40.19;100525.63;5069422;28;20433;-61
2022/08/17 01:33:10;;;;;;;5.30;2.80;;;;;;;26.58;40.43;100519.91;5064525;28;20387;-62
2022/08/17 01:35:39;;;;;;;3.15;2.83;;;;;;;26.60;40.09;100525.88;5063304;28;20886;-62
2022/08/17 01:38:05;;;;;;;4.15;2.80;;;;;;;26.58;40.61;100517.22;5064932;28;20538;-61
2022/08/17 01:40:38;;;;;;;3.53;2.78;;;;;;;26.58;40.61;100525.38;5065162;28;20379;-61
2022/08/17 01:43:23;;;;;;;2.80;2.53;;;;;;;26.55;40.39;100520.47;5064783;28;20376;-61
2022/08/17 01:48:16;;;;;;;3.45;2.78;;;;;;;26.50;40.68;100528.66;5081361;28;20811;-61
2022/08/17 01:50:43;;;;;;;4.05;2.83;;;;;;;26.49;40.56;100524.34;5044280;28;20408;-61
2022/08/17 01:53:26;;;;;;;3.30;2.60;;;;;;;26.48;40.76;100518.06;5045988;28;20389;-60
2022/08/17 01:55:57;;;;;;;3.53;2.72;;;;;;;26.48;40.42;100526.22;5047331;28;20915;-60
2022/08/17 01:58:23;;;;;;;3.78;2.80;;;;;;;26.43;40.77;100520.81;5047105;28;20381;-60
2022/08/17 02:01:34;;;;;;;5.57;3.22;;;;;;;26.42;40.80;100524.63;5093141;27;2119670;-60
2022/08/17 02:04:01;;;;;;;3.87;3.00;;;;;;;26.44;40.88;100529.78;5148534;27;20397;-60
2022/08/17 02:06:31;;;;;;;3.23;2.80;;;;;;;26.44;40.50;100524.38;5148614;27;21036;-60
2022/08/17 02:08:56;;;;;;;3.80;2.60;;;;;;;26.38;40.75;100520.88;5148506;27;20384;-60
2022/08/17 02:11:22;;;;;;;3.78;2.97;;;;;;;26.31;41.34;100517.66;5148962;27;20369;-61
2022/08/17 02:13:49;;;;;;;3.90;2.80;;;;;;;26.26;41.12;100518.47;5148534;27;20388;-61
2022/08/17 02:16:15;;;;;;;3.10;2.80;;;;;;;26.23;41.24;100518.22;5148529;27;20455;-61
2022/08/17 02:18:41;;;;;;;3.22;2.90;;;;;;;26.19;41.63;100519.88;5129886;27;20385;-61
2022/08/17 02:21:07;;;;;;;7.53;2.97;;;;;;;26.16;41.45;100520.44;5148145;27;20401;-60
2022/08/17 02:23:36;;;;;;;3.65;2.80;;;;;;;26.15;41.29;100511.47;5148186;27;20377;-60
2022/08/17 02:26:03;;;;;;;5.37;3.07;;;;;;;26.13;41.53;100510.94;5148455;27;20380;-61
2022/08/17 02:28:28;;;;;;;3.80;2.90;;;;;;;26.08;41.72;100506.34;5148549;27;20796;-61
2022/08/17 02:30:56;;;;;;;5.37;3.20;;;;;;;26.09;41.56;100518.00;5148102;27;20369;-61
2022/08/17 02:33:22;;;;;;;4.73;2.97;;;;;;;26.07;41.74;100520.19;5147952;27;20384;-60
2022/08/17 02:35:47;;;;;;;4.40;2.90;;;;;;;26.05;41.61;100523.19;5148234;27;20755;-61
2022/08/17 02:40:02;;;;;;;4.30;2.97;;;;;;;26.05;41.67;100519.66;5066171;28;20408;-61
2022/08/17 02:42:37;;;;;;;5.07;2.90;;;;;;;26.01;41.70;100521.31;5067080;28;20404;-61
2022/08/17 02:45:06;;;;;;;4.30;2.70;;;;;;;26.00;41.71;100519.69;5060680;28;20411;-61
2022/08/17 02:47:32;;;;;;;4.50;2.80;;;;;;;26.01;41.55;100532.19;5049150;28;20405;-59
2022/08/17 02:49:58;;;;;;;5.32;3.00;;;;;;;25.99;41.65;100531.66;5048812;28;20397;-62
2022/08/17 02:52:26;;;;;;;5.18;2.85;;;;;;;25.98;41.55;100532.72;5047333;28;20893;-61
2022/08/17 02:54:52;;;;;;;4.28;2.85;;;;;;;25.97;41.50;100536.56;5046920;28;20423;-61
2022/08/17 02:57:18;;;;;;;5.17;2.80;;;;;;;25.97;41.73;100529.19;5046288;28;20919;-61
2022/08/17 02:59:43;;;;;;;4.90;2.55;;;;;;;25.95;41.60;100525.97;5046732;28;20452;-61
2022/08/17 03:02:10;;;;;;;4.17;2.50;;;;;;;25.96;41.63;100532.19;5047285;28;20468;-61
2022/08/17 03:04:36;;;;;;;3.45;2.70;;;;;;;26.00;41.40;100534.09;5046775;28;20413;-61
2022/08/17 03:07:04;;;;;;;6.72;3.45;;;;;;;26.00;41.30;100535.97;5054891;28;20424;-61
2022/08/17 03:09:30;;;;;;;5.45;3.00;;;;;;;25.97;41.43;100531.13;5049700;28;20385;-61
2022/08/17 03:12:07;;;;;;;4.63;2.70;;;;;;;25.94;41.65;100522.41;5046546;28;20382;-60
2022/08/17 03:14:36;;;;;;;6.35;3.10;;;;;;;25.94;41.82;100535.19;5046468;28;20914;-61
2022/08/17 03:17:02;;;;;;;4.17;2.80;;;;;;;25.97;41.73;100528.41;5046232;28;20385;-61
2022/08/17 03:19:27;;;;;;;5.63;2.80;;;;;;;25.94;41.57;100536.00;5045960;28;20490;-62
2022/08/17 03:21:53;;;;;;;4.23;2.90;;;;;;;25.95;41.65;100536.81;5045801;28;21459;-60
2022/08/17 03:24:18;;;;;;;4.63;2.57;;;;;;;25.94;41.57;100538.69;5045560;28;20401;-60
2022/08/17 03:26:43;;;;;;;4.10;2.80;;;;;;;25.89;41.46;100536.00;5044214;28;20979;-60
2022/08/17 03:29:09;;;;;;;5.22;2.75;;;;;;;25.86;41.71;100533.81;5045077;28;20386;-61
2022/08/17 03:31:35;;;;;;;4.75;2.90;;;;;;;25.86;41.82;100544.69;5045978;28;20478;-60
2022/08/17 03:34:00;;;;;;;4.00;2.80;;;;;;;25.89;41.81;100549.56;5044475;28;20528;-59
2022/08/17 03:36:26;;;;;;;3.63;2.77;;;;;;;25.91;41.70;100552.81;5045127;28;20405;-61
2022/08/17 03:38:51;;;;;;;4.40;2.88;;;;;;;25.89;41.72;100548.75;5043618;28;20503;-61
2022/08/17 03:42:01;;;;;;;5.18;2.83;;;;;;;25.88;41.64;100550.66;5087238;27;20980;-60
2022/08/17 03:44:26;;;;;;;3.92;2.83;;;;;;;25.90;41.93;100550.38;5085792;28;20969;-60
2022/08/17 03:57:48;;;;;;;5.88;3.00;;;;;;;26.01;41.33;100557.44;5087008;28;20431;-60
2022/08/17 04:00:14;;;;;;;6.53;2.90;;;;;;;26.08;41.36;100563.38;5085721;28;20418;-61
2022/08/17 04:02:41;;;;;;;5.30;2.85;;;;;;;26.16;41.40;100567.41;5076305;28;20451;-61
2022/08/17 04:05:08;;;;;;;5.05;3.15;;;;;;;26.22;41.33;100568.22;5082507;28;20401;-61
2022/08/17 04:07:33;;;;;;;6.17;3.10;;;;;;;26.34;41.04;100563.25;5085770;28;20394;-60
2022/08/17 04:09:59;;;;;;;5.40;3.13;;;;;;;26.52;40.79;100564.53;5084695;28;20459;-60
2022/08/17 04:12:29;;;;;;;6.22;3.00;;;;;;;26.81;40.38;100574.72;5083951;28;20907;-61
2022/08/17 04:14:55;;;;;;;5.10;2.90;;;;;;;27.07;39.51;100578.88;5083756;28;20887;-61
2022/08/17 04:17:26;;;;;;;5.97;2.90;;;;;;;27.33;39.01;100572.44;5083619;28;20398;-62
2022/08/17 04:19:53;;;;;;;5.20;2.63;;;;;;;27.53;39.12;100577.72;5081952;28;20417;-60
2022/08/17 04:22:19;;;;;;;6.43;3.10;;;;;;;27.77;38.28;100576.94;5085972;28;21143;-61
2022/08/17 04:24:44;;;;;;;5.15;2.97;;;;;;;28.03;37.92;100577.47;5082180;28;20402;-61
2022/08/17 04:27:10;;;;;;;4.88;3.05;;;;;;;28.22;37.76;100580.25;5084577;28;20478;-61
2022/08/17 04:29:36;;;;;;;6.77;3.00;;;;;;;28.39;37.14;100575.09;5085890;28;20899;-60
2022/08/17 04:32:02;;;;;;;5.45;2.92;;;;;;;28.52;37.07;100579.03;5084353;28;20826;-61
2022/08/17 04:34:27;;;;;;;4.93;3.10;;;;;;;28.64;36.64;100573.16;5082486;28;20402;-61
2022/08/17 04:36:53;;;;;;;5.57;3.13;;;;;;;28.64;37.03;100581.34;5085740;28;20904;-61
2022/08/17 04:39:18;;;;;;;4.63;2.97;;;;;;;28.73;36.73;100581.50;5084290;28;20409;-61
2022/08/17 04:44:27;;;;;;;6.53;3.30;;;;;;;29.41;35.23;100579.38;5084614;28;20942;-62
2022/08/17 04:46:53;;;;;;;5.00;2.90;;;;;;;29.77;34.84;100589.66;5083408;28;20374;-61
2022/08/17 04:49:19;;;;;;;5.75;2.80;;;;;;;30.08;34.44;100582.47;5082677;28;20378;-62
2022/08/17 04:51:46;;;;;;;3.90;2.97;;;;;;;30.47;33.97;100588.53;5077382;28;20403;-63
2022/08/17 04:54:17;;;;;;;6.63;3.10;;;;;;;30.88;33.14;100587.59;5070628;28;20395;-62
2022/08/17 04:56:43;;;;;;;3.25;2.88;;;;;;;31.31;32.33;100581.63;5070862;28;20410;-61
2022/08/17 04:59:12;;;;;;;8.20;3.40;;;;;;;31.78;31.56;100592.22;5071319;28;20429;-61
2022/08/17 05:01:39;;;;;;;4.10;3.20;;;;;;;32.24;31.26;100585.47;5070423;28;20472;-61
2022/08/17 05:04:08;;;;;;;5.22;3.38;;;;;;;32.77;30.28;100597.31;5072180;28;20383;-61
2022/08/17 05:07:49;;;;;;;4.85;2.95;;;;;;;34.76;27.54;100577.66;5106802;27;20401;-61
2022/08/17 05:10:15;;;;;;;7.63;3.00;;;;;;;37.47;23.66;100582.16;5107704;28;20890;-62
2022/08/17 05:12:40;;;;;;;6.88;3.13;;;;;;;39.53;21.46;100566.78;5107561;28;20426;-60
2022/08/17 05:15:11;;;;;;;5.32;3.25;;;;;;;41.04;19.71;100574.41;5089303;28;20390;-61
2022/08/17 05:17:36;;;;;;;4.80;3.50;;;;;;;42.24;18.56;100565.00;5086758;28;20932;-61
2022/08/17 05:20:03;;;;;;;4.43;3.30;;;;;;;43.25;17.57;100564.13;5086404;28;20386;-60
2022/08/17 05:22:28;;;;;;;5.70;3.10;;;;;;;44.25;16.50;100571.59;5087288;28;20390;-60
2022/08/17 05:24:54;;;;;;;5.15;2.90;;;;;;;45.09;15.71;100572.78;5086947;28;20374;-61
2022/08/17 05:27:19;;;;;;;4.63;3.00;;;;;;;45.81;15.14;100569.38;5086643;28;20442;-61
2022/08/17 05:29:45;;;;;;;6.75;3.15;;;;;;;46.71;14.27;100568.31;5086966;28;20898;-60
2022/08/17 05:32:12;;;;;;;5.60;3.10;;;;;;;47.73;13.49;100559.88;5088774;28;20403;-61
2022/08/17 05:34:38;;;;;;;8.07;3.20;;;;;;;48.52;13.10;100561.09;5107158;28;20392;-61
2022/08/17 05:37:03;;;;;;;5.18;3.22;;;;;;;49.26;12.69;100569.00;5097552;28;20378;-61
2022/08/17 05:39:30;;;;;;;3.60;2.97;;;;;;;49.92;11.65;100563.28;5086525;28;20375;-61
2022/08/17 05:41:56;;;;;;;6.45;3.35;;;;;;;50.56;11.02;100562.63;5086727;28;20425;-61
2022/08/17 05:44:21;;;;;;;5.82;3.08;;;;;;;51.05;10.92;100559.44;5086279;28;20815;-60
2022/08/17 05:46:50;;;;;;;4.22;3.30;;;;;;;51.64;10.59;100561.91;5086421;28;20503;-61
2022/08/17 05:49:24;;;;;;;4.13;3.30;;;;;;;52.34;10.16;100565.34;5085948;28;20390;-61
2022/08/17 05:52:07;;;;;;;7.72;3.40;;;;;;;52.92;9.31;100558.22;5086508;28;20379;-61
2022/08/17 05:55:01;;;;;;;4.22;3.05;;;;;;;53.37;9.00;100550.25;5086424;28;20404;-62
2022/08/17 05:57:32;;;;;;;3.97;3.00;;;;;;;54.09;8.53;100559.16;5086179;28;20477;-61
2022/08/17 06:00:27;;;;;;;4.13;3.27;;;;;;;54.94;8.45;100561.97;5086444;28;20418;-62
2022/08/17 06:03:21;;;;;;;5.43;3.10;;;;;;;55.45;7.60;100553.72;5086222;28;20460;-61
2022/08/17 06:06:01;;;;;;;5.65;3.33;;;;;;;56.15;7.40;100555.25;5085866;28;20422;-61
2022/08/17 06:08:51;;;;;;;3.67;3.28;;;;;;;56.87;6.99;100551.94;5085984;28;20387;-61
2022/08/17 06:11:35;;;;;;;4.20;3.42;;;;;;;57.41;7.04;100555.22;5084852;28;20402;-62
2022/08/17 06:14:22;;;;;;;6.33;3.53;;;;;;;58.19;6.62;100551.53;5086083;28;20382;-61
2022/08/17 06:17:03;;;;;;;3.90;3.50;;;;;;;58.85;5.92;100543.09;5086006;28;20872;-61
2022/08/17 06:19:39;;;;;;;5.25;3.55;;;;;;;59.28;5.15;100545.88;5072064;28;20402;-61
2022/08/17 06:22:10;;;;;;;4.95;3.42;;;;;;;59.84;4.97;100548.06;5072353;28;20417;-61
2022/08/17 06:24:41;;;;;;;5.63;3.50;;;;;;;60.35;4.73;100550.91;5072156;28;20853;-60
2022/08/17 06:27:37;;;;;;;3.80;3.42;;;;;;;60.60;5.02;100540.44;5072247;28;20433;-63
2022/08/17 06:30:08;;;;;;;4.43;4.03;;;;;;;60.83;4.82;100546.06;5072004;28;20379;-62
2022/08/17 06:32:36;;;;;;;5.43;3.58;;;;;;;60.98;4.30;100537.16;5071887;28;20918;-61
2022/08/17 06:35:06;;;;;;;5.63;3.78;;;;;;;61.37;4.07;100536.94;5072273;28;20409;-61
2022/08/17 06:38:11;;;;;;;4.20;3.47;;;;;;;61.46;4.25;100540.78;5072207;28;20470;-61
2022/08/17 06:43:59;;;;;;;3.75;3.42;;;;;;;62.02;3.81;100540.34;5071918;28;20386;-61
2022/08/17 06:46:47;;;;;;;4.38;3.97;;;;;;;62.19;3.58;100534.47;5071346;28;20461;-61
2022/08/17 06:49:20;;;;;;;3.65;3.35;;;;;;;62.40;3.72;100536.81;5071265;28;20418;-62
2022/08/17 06:52:04;;;;;;;4.18;3.78;;;;;;;62.72;3.28;100539.09;5071808;28;20385;-61
2022/08/17 06:54:35;;;;;;;4.80;4.28;;;;;;;62.96;3.34;100536.16;5071413;28;20905;-59
2022/08/17 06:57:24;;;;;;;4.50;4.07;;;;;;;63.11;3.81;100538.56;5071299;28;20387;-59
2022/08/17 07:00:00;;;;;;;6.47;4.25;;;;;;;63.11;3.50;100546.41;5071796;28;20387;-60
2022/08/17 07:02:59;;;;;;;4.85;4.30;;;;;;;63.00;3.21;100538.75;5071662;28;20380;-60
2022/08/17 07:05:50;;;;;;;9.48;4.40;;;;;;;62.99;3.15;100545.78;5069098;28;20387;-58
2022/08/17 07:08:32;;;;;;;4.20;3.80;;;;;;;62.99;3.53;100532.19;5059012;28;20569;-59
2022/08/17 07:11:03;;;;;;;4.85;4.10;;;;;;;62.73;3.15;100537.75;5070401;28;20383;-60
2022/08/17 07:13:32;;;;;;;5.10;4.10;;;;;;;62.44;3.84;100543.06;5070961;28;20408;-59
2022/08/17 07:16:11;;;;;;;4.82;4.20;;;;;;;61.89;4.08;100545.97;5070162;28;20440;-60
2022/08/17 07:18:37;;;;;;;7.97;4.18;;;;;;;59.89;4.55;100543.66;5070138;28;20443;-60
2022/08/17 07:21:37;;;;;;;4.43;4.07;;;;;;;57.74;5.69;100536.13;5070381;28;20847;-60
2022/08/17 07:24:19;;;;;;;5.45;3.92;;;;;;;56.59;6.36;100546.66;5064787;28;20398;-59
2022/08/17 07:26:48;;;;;;;4.43;4.03;;;;;;;57.49;6.10;100532.75;5069968;28;20411;-59
2022/08/17 07:29:16;;;;;;;5.13;3.70;;;;;;;58.96;5.09;100538.75;5068977;28;20398;-59
2022/08/17 07:31:43;;;;;;;4.97;3.90;;;;;;;59.09;5.18;100545.56;5069951;28;20768;-59
2022/08/17 07:34:13;;;;;;;5.03;3.95;;;;;;;57.66;6.00;100532.91;5070131;28;20397;-59
2022/08/17 07:36:40;;;;;;;4.13;3.60;;;;;;;54.53;7.75;100544.56;5070248;28;20387;-58
2022/08/17 07:39:07;;;;;;;3.78;3.30;;;;;;;51.53;9.24;100543.28;5069856;28;20379;-59
2022/08/17 07:41:39;;;;;;;3.50;3.20;;;;;;;49.46;10.64;100557.66;5068715;28;20400;-59
2022/08/17 07:44:15;;;;;;;5.60;3.35;;;;;;;48.02;11.50;100562.94;5068670;28;20379;-59
2022/08/17 07:49:44;;;;;;;6.45;2.60;;;;;;;46.11;12.84;100570.69;5031741;28;20411;-59
2022/08/17 07:52:29;;;;;;;4.20;2.80;;;;;;;45.45;13.32;100569.69;5070208;28;20384;-58
2022/08/17 07:54:55;;;;;;;6.43;2.60;;;;;;;44.70;13.91;100561.84;5068967;28;20386;-59
2022/08/17 07:57:41;;;;;;;4.03;2.60;;;;;;;44.17;14.70;100569.25;5070021;28;20371;-59
2022/08/17 08:00:15;;;;;;;6.43;2.95;;;;;;;43.49;15.32;100558.94;5068976;28;20430;-59
2022/08/17 08:02:57;;;;;;;5.70;2.75;;;;;;;43.04;15.62;100570.50;5069456;28;20390;-60
2022/08/17 08:05:26;;;;;;;6.97;2.88;;;;;;;42.43;15.95;100561.91;5068504;28;20395;-61
2022/08/17 08:08:17;;;;;;;3.88;2.50;;;;;;;42.01;16.62;100558.50;5068669;28;20383;-58
2022/08/17 08:10:42;;;;;;;4.07;2.53;;;;;;;41.58;16.95;100576.88;5067349;28;20710;-63
2022/08/17 08:13:27;;;;;;;3.60;2.60;;;;;;;41.31;17.26;100570.69;5068976;28;20513;-59
2022/08/17 08:16:10;;;;;;;5.03;2.80;;;;;;;40.94;17.81;100583.44;5069216;28;20379;-57
2022/08/17 08:18:42;;;;;;;4.55;2.50;;;;;;;40.43;18.08;100576.47;5069550;28;20383;-58
2022/08/17 08:21:50;;;;;;;6.63;2.72;;;;;;;40.01;18.71;100579.44;5068236;28;20390;-59
2022/08/17 08:24:35;;;;;;;4.50;2.53;;;;;;;39.63;18.85;100570.13;5066437;28;20399;-58
2022/08/17 08:27:33;;;;;;;5.95;2.60;;;;;;;39.36;19.36;100567.25;5067539;28;20411;-60
2022/08/17 08:30:20;;;;;;;5.05;2.70;;;;;;;39.38;19.58;100570.47;5068873;28;20946;-59
2022/08/17 08:33:11;;;;;;;4.10;2.60;;;;;;;39.03;19.77;100567.88;5068922;28;20805;-60
2022/08/17 08:35:52;;;;;;;4.80;2.90;;;;;;;38.85;20.08;100556.44;5069011;28;20379;-59
2022/08/17 08:38:23;;;;;;;4.85;2.50;;;;;;;38.62;20.66;100569.03;5069384;28;20378;-59
2022/08/17 08:41:15;;;;;;;7.85;3.05;;;;;;;38.54;20.54;100561.75;5068499;28;20383;-59
2022/08/17 08:44:04;;;;;;;4.40;2.80;;;;;;;38.31;20.97;100563.63;5069101;28;20379;-59
2022/08/17 08:46:49;;;;;;;6.40;3.03;;;;;;;37.99;21.04;100558.16;5068703;28;20440;-58
2022/08/17 08:49:17;;;;;;;5.65;2.83;;;;;;;38.15;21.17;100561.69;5068302;28;20379;-60
2022/08/17 08:51:56;;;;;;;5.43;2.47;;;;;;;38.12;21.22;100553.31;5068491;28;20371;-59
2022/08/17 08:54:44;;;;;;;3.33;2.35;;;;;;;37.94;21.59;100559.25;5067525;28;20928;-58
2022/08/17 08:57:21;;;;;;;5.25;2.72;;;;;;;37.95;21.80;100558.06;5068039;28;20375;-60
2022/08/17 09:00:13;;;;;;;5.93;2.50;;;;;;;37.98;21.90;100551.03;5068334;28;20470;-57
2022/08/17 09:03:03;;;;;;;6.45;2.67;;;;;;;38.05;21.70;100554.75;5068607;28;20383;-57
2022/08/17 09:05:38;;;;;;;4.25;2.50;;;;;;;38.03;21.81;100553.47;5067813;28;20398;-59
2022/08/17 09:08:32;;;;;;;3.58;2.75;;;;;;;38.06;22.26;100563.84;5068299;28;20387;-59
2022/08/17 09:11:09;;;;;;;3.97;2.72;;;;;;;38.02;21.95;100558.22;5055240;28;20387;-56
2022/08/17 09:13:53;;;;;;;4.60;2.50;;;;;;;37.94;22.24;100555.66;5068930;28;20727;-58
2022/08/17 09:16:28;;;;;;;3.72;2.50;;;;;;;37.85;22.54;100559.44;5068649;28;20402;-58
2022/08/17 09:19:10;;;;;;;3.80;2.40;;;;;;;37.84;22.59;100557.81;5069068;28;20383;-57
2022/08/17 09:21:53;;;;;;;4.47;3.17;;;;;;;37.75;22.56;100565.50;5068417;28;20812;-58
2022/08/17 09:24:34;;;;;;;3.83;3.50;;;;;;;37.74;22.49;100549.28;5068212;28;21556;-57
2022/08/17 09:27:10;;;;;;;5.37;2.97;;;;;;;37.79;22.43;100549.00;5068633;28;20411;-56
2022/08/17 09:29:38;;;;;;;3.58;2.85;;;;;;;37.90;22.64;100558.34;5067634;28;20808;-60
2022/08/17 09:32:23;;;;;;;7.05;3.00;;;;;;;37.75;22.59;100550.88;5067664;28;20444;-58
2022/08/17 09:34:54;;;;;;;5.93;2.80;;;;;;;37.77;22.56;100546.59;5067919;28;20386;-58
2022/08/17 09:37:36;;;;;;;3.83;2.42;;;;;;;37.78;22.43;100544.63;5067557;28;20378;-56
2022/08/17 09:40:02;;;;;;;7.25;3.10;;;;;;;37.77;22.96;100546.59;5068478;28;20383;-58
2022/08/17 09:42:46;;;;;;;3.10;2.40;;;;;;;37.77;22.67;100540.25;5068147;28;20389;-59
2022/08/17 09:45:48;;;;;;;4.28;2.53;;;;;;;37.78;22.56;100544.63;5068033;28;20462;-59
2022/08/17 09:48:29;;;;;;;3.83;2.78;;;;;;;37.74;22.82;100540.97;5068825;28;20987;-60
2022/08/17 09:51:22;;;;;;;4.03;2.60;;;;;;;37.77;22.71;100541.06;5068331;28;20379;-58
2022/08/17 09:53:49;;;;;;;5.32;2.53;;;;;;;37.65;22.88;100538.38;5071406;28;20418;-59
2022/08/17 09:56:17;;;;;;;4.72;2.67;;;;;;;37.60;22.95;100533.09;5071462;28;20482;-59
2022/08/17 09:58:49;;;;;;;4.53;2.40;;;;;;;37.60;22.91;100536.69;5070692;28;20787;-58
2022/08/17 10:01:49;;;;;;;5.00;2.63;;;;;;;37.63;23.23;100540.72;5072827;28;20378;-58
2022/08/17 10:04:39;;;;;;;3.33;2.13;;;;;;;37.49;22.12;100525.38;5041365;28;20390;-59
2022/08/17 10:07:07;;;;;;;4.85;2.40;;;;;;;37.34;22.09;100537.22;5072487;28;20425;-58
2022/08/17 10:10:06;;;;;;;4.95;2.53;;;;;;;37.29;22.05;100526.41;5072328;28;20391;-56
2022/08/17 10:12:47;;;;;;;4.27;2.20;;;;;;;37.29;22.32;100532.78;5072494;28;20465;-60
2022/08/17 10:15:13;;;;;;;3.45;2.33;;;;;;;37.30;21.68;100528.03;5072122;28;20478;-57
2022/08/17 10:18:07;;;;;;;4.93;2.20;;;;;;;37.33;21.93;100518.22;5072745;28;20473;-58
2022/08/17 10:26:11;;;;;;;3.80;2.25;;;;;;;37.25;21.70;100525.53;5064058;28;20460;-59
2022/08/17 10:26:33;;;;;;;3.33;2.25;;;;;;;37.09;21.35;100512.47;5072042;28;20468;-58
2022/08/17 10:29:17;;;;;;;4.80;2.10;;;;;;;37.01;21.05;100524.50;5072249;28;20845;-58
2022/08/17 10:31:48;;;;;;;5.97;2.30;;;;;;;36.89;20.84;100516.28;5072212;28;20383;-58
2022/08/17 10:34:17;;;;;;;6.13;2.78;;;;;;;36.89;20.87;100521.81;5072221;28;20385;-59
2022/08/17 10:36:57;;;;;;;7.47;2.30;;;;;;;36.96;21.40;100524.78;5071853;28;20379;-58
2022/08/17 10:39:46;;;;;;;4.05;2.20;;;;;;;37.00;20.96;100522.91;5071877;28;20486;-60
2022/08/17 10:42:27;;;;;;;3.45;2.17;;;;;;;37.02;21.33;100517.00;5071919;28;20757;-59
2022/08/17 10:45:00;;;;;;;3.67;2.30;;;;;;;36.92;21.64;100516.38;5072304;28;20375;-59
2022/08/17 10:47:58;;;;;;;3.67;2.40;;;;;;;36.98;22.02;100516.13;5071626;28;20407;-58
2022/08/17 10:51:00;;;;;;;7.75;2.45;;;;;;;37.04;21.39;100512.75;5072020;28;20504;-57
2022/08/17 10:53:31;;;;;;;3.63;2.50;;;;;;;37.01;21.28;100509.91;5028298;28;20399;-58
2022/08/17 10:56:12;;;;;;;5.88;2.70;;;;;;;37.00;20.93;100516.56;5070269;28;20402;-60
2022/08/17 10:58:53;;;;;;;7.33;2.70;;;;;;;36.94;20.96;100510.50;5070641;28;20411;-60
2022/08/17 11:01:31;;;;;;;8.13;2.55;;;;;;;36.95;21.07;100508.53;5071332;28;20413;-58
2022/08/17 11:04:07;;;;;;;3.72;2.28;;;;;;;36.92;21.26;100501.78;5070745;28;20371;-59
2022/08/17 11:06:49;;;;;;;4.65;2.42;;;;;;;36.90;21.33;100506.84;5071430;28;20415;-58
2022/08/17 11:09:54;;;;;;;5.70;2.40;;;;;;;36.90;21.36;100502.13;5070720;28;20446;-58
2022/08/17 11:12:29;;;;;;;4.43;2.70;;;;;;;36.93;20.91;100498.66;5056063;28;20387;-57
2022/08/17 11:15:36;;;;;;;4.22;2.40;;;;;;;36.90;21.03;100488.31;5070853;28;20869;-59
2022/08/17 11:18:08;;;;;;;6.13;2.60;;;;;;;36.95;21.12;100489.19;5036358;28;20896;-57
2022/08/17 11:21:26;;;;;;;3.77;2.50;;;;;;;36.85;21.14;100487.78;5070258;28;20963;-58
2022/08/17 11:24:10;;;;;;;3.70;2.30;;;;;;;36.86;21.30;100486.59;4988019;28;20503;-58
2022/08/17 11:26:40;;;;;;;5.20;2.55;;;;;;;36.89;21.65;100483.13;5070037;28;20419;-58
2022/08/17 11:29:37;;;;;;;4.40;2.40;;;;;;;36.95;21.70;100487.22;5070256;28;20390;-60
2022/08/17 11:32:26;;;;;;;2.63;2.43;;;;;;;36.88;21.61;100487.03;5069237;28;20406;-58
2022/08/17 11:35:07;;;;;;;3.50;2.50;;;;;;;36.85;21.19;100479.50;5070524;28;20394;-59
2022/08/17 11:37:46;;;;;;;5.22;2.72;;;;;;;36.83;21.24;100479.03;5070198;28;20402;-59
2022/08/17 11:40:33;;;;;;;6.53;2.60;;;;;;;36.93;22.07;100475.75;5069756;28;20379;-58
2022/08/17 11:43:23;;;;;;;5.15;2.70;;;;;;;36.98;21.52;100474.69;5070822;28;20458;-58
2022/08/17 11:46:00;;;;;;;3.75;2.47;;;;;;;36.89;21.41;100486.69;5069967;28;20387;-59
2022/08/17 11:51:53;;;;;;;2.85;2.38;;;;;;;36.95;21.53;100478.94;5069754;28;20456;-60
2022/08/17 11:54:47;;;;;;;3.65;2.50;;;;;;;36.99;21.54;100471.56;5069608;28;20394;-58
2022/08/17 11:57:44;;;;;;;5.72;3.00;;;;;;;36.96;21.39;100471.47;5070133;28;20378;-58
2022/08/17 12:00:48;;;;;;;4.73;2.70;;;;;;;36.87;21.01;100466.13;5069168;28;20478;-59
2022/08/17 12:03:31;;;;;;;4.97;2.60;;;;;;;36.89;21.12;100469.31;5038502;28;20438;-58
2022/08/17 12:06:15;;;;;;;4.65;2.60;;;;;;;36.92;21.31;100452.03;5068804;28;20994;-60
2022/08/17 12:08:44;;;;;;;7.43;3.20;;;;;;;36.92;21.22;100452.84;5069177;28;20385;-58
2022/08/17 12:11:19;;;;;;;4.15;2.70;;;;;;;36.97;21.92;100462.84;5067696;28;20433;-57
2022/08/17 12:13:51;;;;;;;6.00;2.50;;;;;;;37.01;21.37;100458.19;5068944;28;20440;-59
2022/08/17 12:16:19;;;;;;;3.30;2.38;;;;;;;37.03;20.95;100455.88;5069396;28;20474;-58
2022/08/17 12:18:51;;;;;;;3.58;2.38;;;;;;;37.02;21.20;100464.53;5069001;28;20389;-58
2022/08/17 12:21:16;;;;;;;3.50;2.30;;;;;;;37.04;21.07;100453.91;5069467;28;20379;-58
2022/08/17 12:24:12;;;;;;;4.63;3.22;;;;;;;37.07;21.05;100461.50;5069677;28;20468;-58
2022/08/17 12:26:39;;;;;;;5.75;2.70;;;;;;;37.10;21.24;100453.28;5062942;28;20423;-59
2022/08/17 12:29:15;;;;;;;3.38;2.63;;;;;;;37.09;21.43;100445.34;5069361;28;20880;-58
2022/08/17 12:31:52;;;;;;;4.77;2.53;;;;;;;37.17;21.25;100454.66;5069075;28;20805;-59
2022/08/17 12:34:21;;;;;;;4.03;2.70;;;;;;;37.19;21.39;100455.91;5069164;28;20873;-62
2022/08/17 12:36:50;;;;;;;7.40;3.20;;;;;;;37.19;20.97;100441.28;5069792;28;20865;-59
2022/08/17 12:39:20;;;;;;;7.00;3.00;;;;;;;37.23;21.09;100442.97;5068808;28;20431;-58
2022/08/17 12:41:49;;;;;;;3.65;2.70;;;;;;;37.24;21.03;100443.75;5069194;28;20456;-60